Time;durP1;ratioP1;P1;durP2;ratioP2;P2;SDS_P1;SDS_P2;PMS_P1;PMS_P2;Temp;Humidity;BMP_temperature;BMP_pressure;BME280_temperature;BME280_humidity;BME280_pressure;Samples;Min_cycle;Max_cycle;Signal;HPM_P1;HPM_P2
2021/12/07 00:02:23;;;;;;;29.37;18.80;;;1.10;99.90;;;;;;5037699;28;20188;-63
2021/12/07 00:04:49;;;;;;;29.73;18.00;;;1.00;99.90;;;;;;5031227;28;20547;-63
2021/12/07 00:07:15;;;;;;;32.33;19.20;;;0.90;99.90;;;;;;5038533;28;20201;-64
2021/12/07 00:09:44;;;;;;;31.23;19.03;;;0.90;99.90;;;;;;5029725;28;20220;-63
2021/12/07 00:12:10;;;;;;;30.90;19.43;;;1.00;99.90;;;;;;5032372;28;20194;-63
2021/12/07 00:14:40;;;;;;;28.07;18.37;;;1.00;99.90;;;;;;5035142;28;20233;-63
2021/12/07 00:17:08;;;;;;;29.47;17.93;;;1.00;99.90;;;;;;5033343;28;20196;-62
2021/12/07 00:19:34;;;;;;;26.77;18.10;;;0.90;99.90;;;;;;5031540;28;20655;-62
2021/12/07 00:22:02;;;;;;;27.67;18.37;;;1.00;99.90;;;;;;5031327;28;20189;-62
2021/12/07 00:24:27;;;;;;;28.10;18.07;;;0.80;99.90;;;;;;5033036;28;20203;-64
2021/12/07 00:26:54;;;;;;;29.13;18.33;;;0.80;99.90;;;;;;5032516;28;20209;-64
2021/12/07 00:29:19;;;;;;;25.87;16.40;;;0.80;99.90;;;;;;5033488;28;20307;-64
2021/12/07 00:31:55;;;;;;;31.07;19.43;;;0.80;99.90;;;;;;5031793;28;20751;-64
2021/12/07 00:34:40;;;;;;;27.83;19.23;;;0.80;99.90;;;;;;5033906;28;20200;-63
2021/12/07 00:37:07;;;;;;;27.77;18.27;;;0.70;99.90;;;;;;5031097;28;20190;-64
2021/12/07 00:39:33;;;;;;;27.17;18.67;;;0.70;99.90;;;;;;5032933;28;20300;-63
2021/12/07 00:41:59;;;;;;;30.43;19.50;;;0.70;99.90;;;;;;5036043;28;20291;-63
2021/12/07 00:44:25;;;;;;;26.73;19.27;;;0.70;99.90;;;;;;5039542;28;20639;-62
2021/12/07 00:46:52;;;;;;;28.70;19.63;;;0.70;99.90;;;;;;5032173;28;20206;-63
2021/12/07 00:49:18;;;;;;;27.80;18.77;;;0.70;99.90;;;;;;5035734;28;20210;-64
2021/12/07 00:51:43;;;;;;;25.00;16.67;;;0.70;99.90;;;;;;5039239;28;20265;-63
2021/12/07 00:54:10;;;;;;;29.40;18.40;;;0.70;99.90;;;;;;5033624;28;20179;-63
2021/12/07 00:56:36;;;;;;;27.67;18.43;;;0.70;99.90;;;;;;5037420;28;20668;-62
2021/12/07 00:59:03;;;;;;;27.90;18.70;;;0.70;99.90;;;;;;5036567;28;20309;-63
2021/12/07 01:01:29;;;;;;;25.77;17.00;;;0.80;99.90;;;;;;5037301;28;20191;-62
2021/12/07 01:03:55;;;;;;;28.03;17.40;;;0.70;99.90;;;;;;5035630;28;20178;-63
2021/12/07 01:06:27;;;;;;;26.50;17.37;;;0.70;99.90;;;;;;5034760;28;20195;-63
2021/12/07 01:09:21;;;;;;;26.87;16.93;;;0.70;99.90;;;;;;5035047;28;20198;-63
2021/12/07 01:25:53;;;;;;;24.23;16.50;;;0.60;99.90;;;;;;5033559;28;20623;-62
2021/12/07 01:28:42;;;;;;;24.83;16.50;;;0.60;99.90;;;;;;5034732;28;20220;-63
2021/12/07 01:31:23;;;;;;;23.07;15.57;;;0.60;99.90;;;;;;5033456;28;20179;-63
2021/12/07 01:34:17;;;;;;;22.70;15.90;;;0.50;99.90;;;;;;5031893;28;20187;-63
2021/12/07 01:47:30;;;;;;;21.13;14.70;;;0.50;99.90;;;;;;5022892;28;20237;-64
2021/12/07 01:52:59;;;;;;;26.07;16.13;;;0.30;99.90;;;;;;5032079;28;20205;-65
2021/12/07 02:00:50;;;;;;;24.63;15.10;;;0.20;99.90;;;;;;5032697;28;20539;-62
2021/12/07 02:03:16;;;;;;;20.97;15.30;;;0.20;99.90;;;;;;5030579;28;20211;-61
2021/12/07 02:05:42;;;;;;;25.30;14.67;;;0.20;99.90;;;;;;5039019;28;20212;-61
2021/12/07 02:08:08;;;;;;;22.63;15.57;;;0.20;99.90;;;;;;5030977;28;20210;-60
2021/12/07 02:10:34;;;;;;;26.53;17.27;;;0.20;99.90;;;;;;5038845;28;20815;-62
2021/12/07 02:15:51;;;;;;;23.30;14.77;;;0.20;99.90;;;;;;5028000;28;20322;-63
2021/12/07 02:18:17;;;;;;;19.80;15.30;;;0.20;99.90;;;;;;5042344;28;20294;-63
2021/12/07 02:20:47;;;;;;;22.97;14.40;;;0.20;99.90;;;;;;5042010;28;20195;-63
2021/12/07 02:23:13;;;;;;;20.87;14.97;;;0.20;99.90;;;;;;5051995;28;20205;-64
2021/12/07 02:25:38;;;;;;;24.07;15.50;;;0.20;99.90;;;;;;5064904;28;20196;-64
2021/12/07 02:28:11;;;;;;;17.97;14.17;;;0.20;99.90;;;;;;5044047;28;20209;-64
2021/12/07 02:30:36;;;;;;;22.17;15.13;;;0.20;99.90;;;;;;5025621;28;20221;-64
2021/12/07 02:33:02;;;;;;;24.90;15.30;;;0.10;99.90;;;;;;5056790;28;20201;-65
2021/12/07 02:35:28;;;;;;;22.03;15.73;;;0.10;99.90;;;;;;5059548;28;20195;-63
2021/12/07 02:37:56;;;;;;;19.53;15.37;;;0.10;99.90;;;;;;5030121;28;20605;-63
2021/12/07 02:40:22;;;;;;;20.33;14.47;;;0.10;99.90;;;;;;5029281;28;20182;-63
2021/12/07 02:42:47;;;;;;;24.33;14.93;;;0.10;99.90;;;;;;5050947;28;20205;-63
2021/12/07 02:45:14;;;;;;;25.70;15.80;;;0.10;99.90;;;;;;5040261;28;20194;-62
2021/12/07 02:47:40;;;;;;;22.10;15.10;;;0.00;99.90;;;;;;5051982;28;20201;-63
2021/12/07 02:50:06;;;;;;;22.33;15.40;;;0.00;99.90;;;;;;5033012;28;20766;-63
2021/12/07 02:52:32;;;;;;;21.43;14.77;;;0.00;99.90;;;;;;5045628;28;20640;-63
2021/12/07 02:54:58;;;;;;;21.07;15.53;;;0.00;99.90;;;;;;5033965;28;20221;-63
2021/12/07 02:57:24;;;;;;;22.83;15.47;;;0.00;99.90;;;;;;5043902;28;20216;-64
2021/12/07 03:00:01;;;;;;;21.73;15.27;;;0.00;99.90;;;;;;5036838;28;20226;-64
2021/12/07 03:02:27;;;;;;;26.10;16.67;;;0.00;99.90;;;;;;5025889;28;20206;-64
2021/12/07 03:05:02;;;;;;;21.97;15.13;;;0.00;99.90;;;;;;5045123;28;20261;-64
2021/12/07 03:07:52;;;;;;;22.63;15.27;;;0.00;99.90;;;;;;5037463;28;20212;-64
2021/12/07 03:25:54;;;;;;;21.80;15.50;;;0.00;99.90;;;;;;5025083;28;20689;-63
2021/12/07 03:26:48;;;;;;;22.37;16.13;;;-0.10;99.90;;;;;;5025234;28;20256;-63
2021/12/07 03:29:13;;;;;;;24.57;16.60;;;0.00;99.90;;;;;;5026925;28;20217;-63
2021/12/07 03:31:38;;;;;;;21.30;15.40;;;0.00;99.90;;;;;;5050317;28;20231;-65
2021/12/07 03:34:04;;;;;;;23.17;16.07;;;0.00;99.90;;;;;;5029879;28;20196;-64
2021/12/07 03:36:31;;;;;;;24.60;15.93;;;-0.10;99.90;;;;;;5041640;28;20205;-64
2021/12/07 03:38:57;;;;;;;19.80;14.43;;;-0.10;99.90;;;;;;5035454;28;20216;-64
2021/12/07 03:41:23;;;;;;;27.87;16.47;;;-0.10;99.90;;;;;;5055368;28;20192;-64
2021/12/07 03:43:50;;;;;;;26.67;16.70;;;-0.10;99.90;;;;;;5031926;28;20706;-64
2021/12/07 03:46:17;;;;;;;25.67;16.90;;;-0.10;99.90;;;;;;5056738;28;20235;-64
2021/12/07 03:48:43;;;;;;;27.63;18.43;;;-0.10;99.90;;;;;;5033155;28;20204;-64
2021/12/07 03:51:09;;;;;;;24.20;17.10;;;-0.10;99.90;;;;;;5047377;28;20250;-63
2021/12/07 03:53:35;;;;;;;28.47;17.33;;;-0.20;99.90;;;;;;5041525;28;20239;-63
2021/12/07 03:56:06;;;;;;;26.70;18.00;;;-0.20;99.90;;;;;;5058290;28;20698;-63
2021/12/07 03:58:32;;;;;;;25.67;17.87;;;-0.30;99.90;;;;;;5022863;28;20202;-63
2021/12/07 04:00:58;;;;;;;26.47;17.17;;;-0.30;99.90;;;;;;5050525;28;20279;-64
2021/12/07 04:03:24;;;;;;;26.10;17.47;;;-0.40;99.90;;;;;;5038130;28;20308;-64
2021/12/07 04:05:55;;;;;;;28.13;17.33;;;-0.40;99.90;;;;;;5055839;28;20195;-64
2021/12/07 04:08:24;;;;;;;26.20;18.07;;;-0.40;99.90;;;;;;5026519;28;20292;-62
2021/12/07 04:10:51;;;;;;;29.50;17.57;;;-0.30;99.90;;;;;;5051871;28;20214;-64
2021/12/07 04:13:16;;;;;;;27.40;18.27;;;-0.30;99.90;;;;;;5040868;28;20206;-64
2021/12/07 04:15:42;;;;;;;30.60;19.60;;;-0.30;99.90;;;;;;5050988;28;20222;-64
2021/12/07 04:18:08;;;;;;;30.80;20.23;;;-0.30;99.90;;;;;;5033269;28;20251;-64
2021/12/07 04:20:34;;;;;;;26.83;18.57;;;-0.30;99.90;;;;;;5067048;28;20344;-63
2021/12/07 04:23:00;;;;;;;28.00;18.67;;;-0.20;99.90;;;;;;5042168;28;20203;-62
2021/12/07 04:25:25;;;;;;;27.00;18.87;;;-0.20;99.90;;;;;;5054146;28;20212;-63
2021/12/07 04:27:55;;;;;;;27.73;20.27;;;-0.30;99.90;;;;;;5045579;28;20208;-63
2021/12/07 04:30:27;;;;;;;30.53;19.97;;;-0.40;99.90;;;;;;5058986;28;20668;-63
2021/12/07 04:32:53;;;;;;;31.20;21.13;;;-0.40;99.90;;;;;;5048244;28;20296;-63
2021/12/07 04:35:20;;;;;;;30.03;20.20;;;-0.30;99.90;;;;;;5063797;28;20199;-63
2021/12/07 04:37:46;;;;;;;26.70;19.23;;;-0.30;99.90;;;;;;5049616;28;20209;-63
2021/12/07 04:40:15;;;;;;;30.67;20.47;;;-0.30;99.90;;;;;;5047960;28;20193;-63
2021/12/07 04:42:41;;;;;;;32.97;19.77;;;-0.20;99.90;;;;;;5051411;28;20202;-63
2021/12/07 04:45:09;;;;;;;31.83;20.50;;;-0.30;99.90;;;;;;5041846;28;20272;-63
2021/12/07 04:47:49;;;;;;;29.97;19.13;;;-0.20;99.90;;;;;;5041045;28;20282;-63
2021/12/07 04:58:08;;;;;;;28.63;19.87;;;-0.10;99.90;;;;;;5036457;28;20646;-64
2021/12/07 05:00:35;;;;;;;31.90;19.37;;;-0.10;99.90;;;;;;5049170;28;20229;-64
2021/12/07 05:03:05;;;;;;;31.93;22.03;;;-0.10;99.90;;;;;;5045497;28;20232;-63
2021/12/07 05:05:35;;;;;;;29.10;19.23;;;-0.10;99.90;;;;;;5064511;28;20228;-64
2021/12/07 05:08:05;;;;;;;29.83;18.90;;;-0.10;99.90;;;;;;5033507;28;20293;-64
2021/12/07 05:10:33;;;;;;;28.70;19.53;;;0.00;99.90;;;;;;5061572;28;20308;-64
2021/12/07 05:15:56;;;;;;;28.37;20.23;;;-0.10;99.90;;;;;;5043330;28;20229;-63
2021/12/07 05:18:42;;;;;;;30.13;19.63;;;-0.20;99.90;;;;;;5044544;28;20197;-63
2021/12/07 05:39:58;;;;;;;34.73;21.37;;;0.00;99.90;;;;;;5026888;28;20561;-63
2021/12/07 05:42:24;;;;;;;34.07;22.17;;;0.00;99.90;;;;;;5041009;28;20670;-63
2021/12/07 05:44:54;;;;;;;31.00;20.27;;;0.00;99.90;;;;;;5054012;28;20193;-64
2021/12/07 05:47:20;;;;;;;30.83;20.07;;;0.00;99.90;;;;;;5037718;28;20205;-63
2021/12/07 05:49:45;;;;;;;30.30;20.43;;;0.10;99.90;;;;;;5053688;28;20434;-64
2021/12/07 05:52:11;;;;;;;32.20;21.83;;;0.10;99.90;;;;;;5035107;28;20708;-64
2021/12/07 05:54:37;;;;;;;32.97;20.50;;;0.10;99.90;;;;;;5059748;28;20187;-64
2021/12/07 05:57:03;;;;;;;31.73;20.27;;;0.00;99.90;;;;;;5036491;28;20215;-65
2021/12/07 05:59:28;;;;;;;31.20;21.83;;;0.00;99.90;;;;;;5056944;28;20289;-64
2021/12/07 06:01:54;;;;;;;34.70;20.83;;;0.00;99.90;;;;;;5051291;28;20226;-64
2021/12/07 06:04:20;;;;;;;33.17;21.13;;;0.10;99.90;;;;;;5049452;28;20201;-65
2021/12/07 06:06:45;;;;;;;30.77;19.67;;;0.10;99.90;;;;;;5046232;28;20373;-64
2021/12/07 06:09:11;;;;;;;34.07;22.47;;;0.10;99.90;;;;;;5043998;28;20247;-63
2021/12/07 06:11:36;;;;;;;31.77;20.57;;;0.20;99.90;;;;;;5050945;28;20189;-62
2021/12/07 06:14:02;;;;;;;28.87;19.60;;;0.20;99.90;;;;;;5035625;28;20324;-63
2021/12/07 06:16:30;;;;;;;35.37;21.07;;;0.20;99.90;;;;;;5040967;28;20203;-64
2021/12/07 06:18:56;;;;;;;31.27;22.00;;;0.20;99.90;;;;;;5038623;28;20669;-64
2021/12/07 06:21:22;;;;;;;30.80;21.50;;;0.10;99.90;;;;;;5058020;28;20225;-74
2021/12/07 06:23:48;;;;;;;33.63;20.53;;;0.00;99.90;;;;;;5039374;28;20246;-63
2021/12/07 06:26:13;;;;;;;34.10;23.13;;;0.00;99.90;;;;;;5048697;28;20204;-63
2021/12/07 06:28:39;;;;;;;33.30;22.37;;;-0.10;99.90;;;;;;5049633;28;20279;-63
2021/12/07 06:31:05;;;;;;;35.63;21.57;;;-0.10;99.90;;;;;;5056726;28;20221;-62
2021/12/07 06:33:30;;;;;;;32.67;20.83;;;-0.10;99.90;;;;;;5029719;28;20640;-64
2021/12/07 06:36:00;;;;;;;36.93;23.63;;;-0.10;99.90;;;;;;5041937;28;20207;-64
2021/12/07 06:38:31;;;;;;;31.17;20.07;;;-0.10;99.90;;;;;;5032829;28;20193;-63
2021/12/07 06:40:57;;;;;;;34.03;21.93;;;-0.20;99.90;;;;;;5054878;28;20213;-63
2021/12/07 06:43:23;;;;;;;36.37;20.70;;;-0.10;99.90;;;;;;5037610;28;20205;-63
2021/12/07 06:45:49;;;;;;;33.03;20.17;;;-0.10;99.90;;;;;;5049736;28;20208;-64
2021/12/07 06:48:15;;;;;;;34.70;23.50;;;-0.10;99.90;;;;;;5032511;28;20956;-63
2021/12/07 06:50:40;;;;;;;35.20;22.07;;;-0.10;99.90;;;;;;5054107;28;20235;-64
2021/12/07 06:53:06;;;;;;;33.40;22.70;;;-0.10;99.90;;;;;;5033613;28;20210;-63
2021/12/07 06:55:32;;;;;;;34.37;22.07;;;-0.10;99.90;;;;;;5051015;28;20196;-62
2021/12/07 06:57:58;;;;;;;32.70;22.67;;;-0.20;99.90;;;;;;5034033;28;20205;-62
2021/12/07 07:00:24;;;;;;;32.00;21.50;;;-0.20;99.90;;;;;;5048057;28;20189;-63
2021/12/07 07:02:49;;;;;;;42.53;23.43;;;-0.10;99.90;;;;;;5027828;28;20237;-63
2021/12/07 07:05:15;;;;;;;36.63;21.83;;;0.00;99.90;;;;;;5052851;28;20205;-63
2021/12/07 07:07:42;;;;;;;37.27;22.90;;;0.00;99.90;;;;;;5033963;28;20204;-65
2021/12/07 07:10:11;;;;;;;35.60;23.03;;;-0.10;99.90;;;;;;5052074;28;20731;-65
2021/12/07 07:12:37;;;;;;;39.20;24.53;;;0.00;99.90;;;;;;5041623;28;20213;-65
2021/12/07 07:15:04;;;;;;;32.90;22.40;;;0.00;99.90;;;;;;5062732;28;20320;-65
2021/12/07 07:17:30;;;;;;;37.37;24.00;;;0.00;99.90;;;;;;5029394;28;20677;-63
2021/12/07 07:19:55;;;;;;;38.03;25.53;;;0.00;99.90;;;;;;5063880;28;20203;-63
2021/12/07 07:22:21;;;;;;;36.57;23.67;;;0.00;99.90;;;;;;5045423;28;20672;-64
2021/12/07 07:24:46;;;;;;;34.03;23.00;;;0.00;99.90;;;;;;5056165;28;20236;-64
2021/12/07 07:27:12;;;;;;;37.20;24.20;;;-0.10;99.90;;;;;;5040083;28;20357;-65
2021/12/07 07:29:37;;;;;;;38.10;23.27;;;-0.10;99.90;;;;;;5053573;28;20200;-65
2021/12/07 07:32:03;;;;;;;41.93;24.77;;;-0.20;99.90;;;;;;5039994;28;20675;-65
2021/12/07 07:34:29;;;;;;;39.93;25.70;;;-0.20;99.90;;;;;;5045731;28;20193;-65
2021/12/07 07:36:55;;;;;;;36.17;23.87;;;-0.20;99.90;;;;;;5041447;28;20738;-65
2021/12/07 07:39:20;;;;;;;38.00;23.70;;;-0.20;99.90;;;;;;5044153;28;20589;-65
2021/12/07 07:41:46;;;;;;;34.33;22.80;;;-0.20;99.90;;;;;;5043845;28;20302;-65
2021/12/07 07:44:11;;;;;;;41.10;25.03;;;-0.30;99.90;;;;;;5041754;28;20662;-65
2021/12/07 07:46:37;;;;;;;35.80;21.33;;;-0.30;99.90;;;;;;5046278;28;20206;-65
2021/12/07 07:49:04;;;;;;;40.80;24.03;;;-0.30;99.90;;;;;;5039019;28;20652;-64
2021/12/07 07:51:31;;;;;;;37.83;25.03;;;-0.40;99.90;;;;;;5049062;28;20454;-64
2021/12/07 07:54:00;;;;;;;37.17;24.70;;;-0.30;99.90;;;;;;5048651;28;20212;-63
2021/12/07 07:56:27;;;;;;;41.73;25.40;;;-0.30;99.90;;;;;;5054145;28;20716;-64
2021/12/07 07:58:54;;;;;;;40.83;26.77;;;-0.40;99.90;;;;;;5033006;28;20200;-63
2021/12/07 08:01:20;;;;;;;39.83;24.80;;;-0.30;99.90;;;;;;5047772;28;20212;-63
2021/12/07 08:03:46;;;;;;;37.40;23.17;;;-0.30;99.90;;;;;;5038544;28;20594;-64
2021/12/07 08:06:11;;;;;;;40.60;24.97;;;-0.20;99.90;;;;;;5059582;28;20208;-64
2021/12/07 08:08:36;;;;;;;40.40;25.40;;;-0.20;99.90;;;;;;5036303;28;20255;-64
2021/12/07 08:11:02;;;;;;;37.10;24.60;;;-0.20;99.90;;;;;;5056415;28;20656;-62
2021/12/07 08:13:30;;;;;;;36.83;24.50;;;-0.20;99.90;;;;;;5035364;28;20194;-62
2021/12/07 08:15:56;;;;;;;39.93;25.60;;;-0.20;99.90;;;;;;5046179;28;20244;-63
2021/12/07 08:18:22;;;;;;;35.47;23.03;;;-0.10;99.90;;;;;;5040725;28;20835;-63
2021/12/07 08:20:48;;;;;;;37.07;24.67;;;0.00;99.90;;;;;;5052876;28;20221;-63
2021/12/07 08:23:13;;;;;;;36.97;23.23;;;-0.10;99.90;;;;;;5030633;28;20204;-63
2021/12/07 08:25:43;;;;;;;39.87;25.03;;;0.00;99.90;;;;;;5061076;28;20205;-65
2021/12/07 08:28:11;;;;;;;35.93;24.30;;;0.00;99.90;;;;;;5048079;28;20190;-64
2021/12/07 08:30:37;;;;;;;30.50;21.53;;;0.00;99.90;;;;;;5048820;28;20219;-63
2021/12/07 08:33:03;;;;;;;34.47;22.93;;;0.10;99.90;;;;;;5032011;28;20220;-63
2021/12/07 08:35:29;;;;;;;33.07;21.27;;;0.00;99.90;;;;;;5058088;28;20267;-63
2021/12/07 08:37:55;;;;;;;33.80;22.87;;;0.10;99.90;;;;;;5037322;28;20203;-63
2021/12/07 08:40:23;;;;;;;36.70;23.63;;;0.10;99.90;;;;;;5055040;28;20217;-63
2021/12/07 08:42:50;;;;;;;30.23;20.97;;;0.20;99.90;;;;;;5034226;28;20207;-64
2021/12/07 08:45:16;;;;;;;31.00;21.30;;;0.20;99.90;;;;;;5055803;28;20196;-64
2021/12/07 08:47:42;;;;;;;33.73;21.53;;;0.20;99.90;;;;;;5033348;28;20205;-64
2021/12/07 08:50:13;;;;;;;30.10;19.83;;;0.20;99.90;;;;;;5060935;28;20215;-63
2021/12/07 08:52:39;;;;;;;36.63;21.70;;;0.20;99.90;;;;;;5026116;28;20206;-64
2021/12/07 09:00:17;;;;;;;39.90;21.70;;;0.20;99.90;;;;;;5026645;28;20217;-64
2021/12/07 09:02:43;;;;;;;34.13;19.50;;;0.20;99.90;;;;;;5031420;28;20207;-64
2021/12/07 09:05:09;;;;;;;32.43;21.17;;;0.30;99.90;;;;;;5053350;28;20190;-65
2021/12/07 09:07:35;;;;;;;34.87;22.40;;;0.30;99.90;;;;;;5039450;28;20269;-64
2021/12/07 09:10:02;;;;;;;35.80;23.20;;;0.30;99.90;;;;;;5058542;28;20625;-68
2021/12/07 09:12:29;;;;;;;33.70;23.03;;;0.30;99.90;;;;;;5037810;28;20217;-64
2021/12/07 09:14:55;;;;;;;34.20;20.83;;;0.30;99.90;;;;;;5041814;28;20322;-63
2021/12/07 09:17:21;;;;;;;32.23;20.93;;;0.30;99.90;;;;;;5038312;28;20201;-64
2021/12/07 09:19:46;;;;;;;37.53;21.47;;;0.30;99.90;;;;;;5037985;28;20761;-63
2021/12/07 09:22:12;;;;;;;31.23;20.73;;;0.40;99.90;;;;;;5036117;28;20205;-63
2021/12/07 09:24:37;;;;;;;28.37;20.27;;;0.40;99.90;;;;;;5039691;28;20212;-63
2021/12/07 09:27:03;;;;;;;29.30;20.00;;;0.50;99.90;;;;;;5037040;28;20257;-64
2021/12/07 09:29:29;;;;;;;33.43;21.33;;;0.50;99.90;;;;;;5043288;28;20733;-65
2021/12/07 09:31:55;;;;;;;30.93;20.97;;;0.40;99.90;;;;;;5043485;28;20277;-63
2021/12/07 09:34:20;;;;;;;31.50;20.07;;;0.40;99.90;;;;;;5045161;28;20195;-64
2021/12/07 09:36:46;;;;;;;33.23;22.97;;;0.40;99.90;;;;;;5051955;28;20202;-64
2021/12/07 09:39:14;;;;;;;31.30;19.73;;;0.40;99.90;;;;;;5044461;28;20254;-63
2021/12/07 09:41:40;;;;;;;29.93;20.53;;;0.40;99.90;;;;;;5049871;28;20206;-63
2021/12/07 09:44:08;;;;;;;30.60;20.13;;;0.40;99.90;;;;;;5055387;28;20200;-65
2021/12/07 09:46:35;;;;;;;30.40;21.10;;;0.50;99.90;;;;;;5039622;28;20204;-64
2021/12/07 09:49:03;;;;;;;36.23;22.13;;;0.50;99.90;;;;;;5034591;28;20237;-64
2021/12/07 09:51:28;;;;;;;32.73;21.83;;;0.50;99.90;;;;;;5042766;28;20585;-63
2021/12/07 09:53:56;;;;;;;33.23;20.80;;;0.60;99.90;;;;;;5035259;28;20179;-64
2021/12/07 09:56:23;;;;;;;29.93;21.20;;;0.60;99.90;;;;;;5032365;28;20589;-62
2021/12/07 09:58:50;;;;;;;32.77;22.87;;;0.50;99.90;;;;;;5033552;28;20203;-64
2021/12/07 10:01:17;;;;;;;31.10;21.53;;;0.50;99.90;;;;;;5028418;28;20205;-64
2021/12/07 10:03:43;;;;;;;29.07;20.93;;;0.50;99.90;;;;;;5037397;28;20193;-64
2021/12/07 10:06:09;;;;;;;33.90;21.20;;;0.50;99.90;;;;;;5041614;28;20212;-66
2021/12/07 10:08:35;;;;;;;33.67;22.50;;;0.60;99.90;;;;;;5036014;28;20277;-64
2021/12/07 10:11:03;;;;;;;32.87;21.10;;;0.60;99.90;;;;;;5040383;28;20246;-66
2021/12/07 10:13:30;;;;;;;32.80;21.10;;;0.60;99.90;;;;;;5028143;28;20263;-65
2021/12/07 10:15:58;;;;;;;31.03;20.10;;;0.70;99.90;;;;;;5034093;28;20228;-66
2021/12/07 10:18:27;;;;;;;39.20;22.97;;;0.60;99.90;;;;;;5028396;28;20215;-68
2021/12/07 10:20:59;;;;;;;30.77;22.17;;;0.60;99.90;;;;;;5047133;28;20204;-68
2021/12/07 10:23:33;;;;;;;33.53;20.63;;;0.70;99.90;;;;;;5042428;28;20206;-69
2021/12/07 10:26:24;;;;;;;30.90;21.43;;;0.70;99.90;;;;;;5044462;28;20205;-69
2021/12/07 10:28:53;;;;;;;32.70;21.60;;;0.70;99.90;;;;;;5035533;28;20688;-68
2021/12/07 10:31:29;;;;;;;31.20;21.77;;;0.70;99.90;;;;;;5034426;28;20222;-69
2021/12/07 10:33:59;;;;;;;34.63;22.37;;;0.60;99.90;;;;;;5034172;28;20926;-68
2021/12/07 10:36:35;;;;;;;33.37;23.07;;;0.70;99.90;;;;;;5035405;28;20282;-69
2021/12/07 10:39:12;;;;;;;35.57;22.13;;;0.70;99.90;;;;;;5036623;28;20270;-69
2021/12/07 10:41:49;;;;;;;38.53;23.00;;;0.70;99.90;;;;;;5029950;28;20206;-73
2021/12/07 10:44:20;;;;;;;33.20;22.50;;;0.70;99.90;;;;;;5030360;28;20203;-76
2021/12/07 10:46:59;;;;;;;32.83;22.30;;;0.70;99.90;;;;;;5040570;28;20809;-75
2021/12/07 10:49:36;;;;;;;35.73;22.43;;;0.70;99.90;;;;;;5045749;28;20221;-75
2021/12/07 10:52:18;;;;;;;37.63;23.13;;;0.70;99.90;;;;;;5026335;28;20214;-68
2021/12/07 10:54:49;;;;;;;31.33;22.33;;;0.70;99.90;;;;;;5029402;28;20229;-64
2021/12/07 10:57:22;;;;;;;36.60;22.93;;;0.80;99.90;;;;;;5037360;28;21226;-64
2021/12/07 10:59:53;;;;;;;34.33;22.77;;;0.80;99.90;;;;;;5030636;28;20646;-65
2021/12/07 11:02:18;;;;;;;33.83;22.97;;;0.80;99.90;;;;;;5038895;28;20188;-63
2021/12/07 11:04:45;;;;;;;34.03;23.37;;;0.80;99.90;;;;;;5029827;28;20558;-63
2021/12/07 11:07:18;;;;;;;39.10;24.00;;;0.80;99.90;;;;;;5031394;28;20175;-64
2021/12/07 11:10:08;;;;;;;38.50;24.37;;;0.80;99.90;;;;;;5027620;28;20218;-63
2021/12/07 11:12:52;;;;;;;36.27;23.63;;;0.80;99.90;;;;;;5036237;28;20621;-64
2021/12/07 11:15:24;;;;;;;38.80;23.90;;;0.90;99.90;;;;;;5039397;28;20224;-63
2021/12/07 11:17:52;;;;;;;39.47;25.07;;;0.90;99.90;;;;;;5042233;28;20280;-64
2021/12/07 11:20:18;;;;;;;35.53;23.47;;;0.90;99.90;;;;;;5029415;28;20237;-63
2021/12/07 11:22:54;;;;;;;36.07;23.83;;;0.90;99.90;;;;;;5044158;28;20228;-64
2021/12/07 11:25:53;;;;;;;39.00;24.70;;;0.90;99.90;;;;;;5040529;28;20235;-64
2021/12/07 11:31:45;;;;;;;36.93;24.63;;;0.90;99.90;;;;;;5036843;28;20206;-64
2021/12/07 11:34:15;;;;;;;36.27;24.67;;;1.00;99.90;;;;;;5034226;28;20206;-63
2021/12/07 11:36:43;;;;;;;34.87;23.43;;;1.00;99.90;;;;;;5031532;28;20182;-63
2021/12/07 11:39:29;;;;;;;39.53;23.57;;;1.10;99.90;;;;;;5034916;28;20206;-64
2021/12/07 11:41:59;;;;;;;36.90;23.83;;;1.10;99.90;;;;;;5037086;28;20646;-63
2021/12/07 11:44:26;;;;;;;40.33;23.93;;;1.00;99.90;;;;;;5037855;28;20202;-63
2021/12/07 11:46:53;;;;;;;40.70;24.63;;;1.10;99.90;;;;;;5037788;28;20664;-64
2021/12/07 11:49:22;;;;;;;33.47;22.93;;;1.00;99.90;;;;;;5034674;28;20197;-62
2021/12/07 11:51:50;;;;;;;39.83;23.87;;;1.00;99.90;;;;;;5026856;28;20228;-62
2021/12/07 11:54:18;;;;;;;35.93;24.30;;;1.00;99.90;;;;;;5033290;28;20733;-63
2021/12/07 11:56:45;;;;;;;40.07;24.17;;;1.00;99.90;;;;;;5031290;28;20251;-63
2021/12/07 11:59:12;;;;;;;38.00;23.23;;;0.90;99.90;;;;;;5040751;28;20190;-63
2021/12/07 12:01:40;;;;;;;40.30;25.47;;;1.00;99.90;;;;;;5029447;28;20178;-63
2021/12/07 12:04:06;;;;;;;38.40;24.00;;;1.00;99.90;;;;;;5035888;28;20272;-64
2021/12/07 12:06:33;;;;;;;38.40;23.00;;;1.10;99.90;;;;;;5035970;28;20218;-64
2021/12/07 12:08:59;;;;;;;33.97;22.33;;;1.10;99.90;;;;;;5040748;28;20654;-63
2021/12/07 12:11:40;;;;;;;38.77;24.10;;;1.10;99.90;;;;;;5047399;28;20314;-63
2021/12/07 12:14:36;;;;;;;37.77;24.97;;;1.10;99.90;;;;;;5028880;28;20230;-63
2021/12/07 12:17:17;;;;;;;38.13;22.80;;;1.20;99.90;;;;;;5041185;28;20252;-63
2021/12/07 12:20:01;;;;;;;40.00;24.67;;;1.20;99.90;;;;;;5024130;28;20203;-64
2021/12/07 12:22:38;;;;;;;37.63;22.83;;;1.10;99.90;;;;;;5024301;28;20280;-64
2021/12/07 12:25:10;;;;;;;40.53;24.07;;;1.10;99.90;;;;;;5033049;28;20203;-64
2021/12/07 12:27:37;;;;;;;39.30;24.93;;;1.10;99.90;;;;;;5024148;28;20261;-64
2021/12/07 12:30:20;;;;;;;39.43;24.97;;;1.10;99.90;;;;;;5037218;28;20692;-63
2021/12/07 12:32:50;;;;;;;38.73;23.47;;;1.10;99.90;;;;;;5025509;28;20274;-64
2021/12/07 12:35:16;;;;;;;42.27;26.87;;;1.20;99.90;;;;;;5036567;28;20210;-64
2021/12/07 12:37:49;;;;;;;36.97;23.47;;;1.20;99.90;;;;;;5043658;28;20189;-63
2021/12/07 12:40:25;;;;;;;45.13;24.63;;;1.30;99.90;;;;;;5036383;28;20242;-63
2021/12/07 12:42:54;;;;;;;36.83;23.70;;;1.30;99.90;;;;;;5030405;28;20376;-63
2021/12/07 12:45:28;;;;;;;35.37;23.07;;;1.30;99.90;;;;;;5045497;28;20212;-63
2021/12/07 12:48:03;;;;;;;41.93;24.67;;;1.30;99.90;;;;;;5036307;28;20195;-63
2021/12/07 12:50:36;;;;;;;36.33;24.53;;;1.30;99.90;;;;;;5032517;28;20218;-63
2021/12/07 12:53:24;;;;;;;38.47;25.40;;;1.30;99.90;;;;;;5051062;28;20193;-64
2021/12/07 12:55:58;;;;;;;41.20;24.73;;;1.40;99.90;;;;;;5034900;28;20195;-64
2021/12/07 12:58:30;;;;;;;36.60;23.40;;;1.30;99.90;;;;;;5036210;28;20273;-79
2021/12/07 13:01:21;;;;;;;40.77;25.23;;;1.30;99.90;;;;;;5040092;28;20281;-77
2021/12/07 13:03:55;;;;;;;35.97;22.93;;;1.20;99.90;;;;;;5039214;28;20205;-77
2021/12/07 13:06:40;;;;;;;42.27;25.37;;;1.20;99.90;;;;;;5040822;28;20187;-77
2021/12/07 13:09:09;;;;;;;38.10;25.03;;;1.20;99.90;;;;;;5039869;28;20198;-77
2021/12/07 13:11:44;;;;;;;41.20;23.90;;;1.30;99.90;;;;;;5044695;28;20239;-82
2021/12/07 13:14:32;;;;;;;37.17;24.30;;;1.30;99.90;;;;;;5040611;28;20197;-75
2021/12/07 13:17:06;;;;;;;37.70;23.97;;;1.30;99.90;;;;;;5035777;28;20186;-77
2021/12/07 13:19:53;;;;;;;41.27;24.10;;;1.30;99.90;;;;;;5030793;28;20199;-74
2021/12/07 13:22:19;;;;;;;37.47;23.93;;;1.20;99.90;;;;;;5037313;28;20193;-75
2021/12/07 13:24:46;;;;;;;38.87;25.30;;;1.10;99.90;;;;;;5040340;28;20204;-75
2021/12/07 13:27:14;;;;;;;39.93;24.40;;;1.20;99.90;;;;;;5039973;28;20190;-75
2021/12/07 13:29:52;;;;;;;39.67;24.50;;;1.20;99.90;;;;;;5030836;28;20206;-75
2021/12/07 13:32:18;;;;;;;38.70;24.90;;;1.20;99.90;;;;;;5035421;28;20291;-77
2021/12/07 13:34:44;;;;;;;37.73;25.00;;;1.20;99.90;;;;;;5037301;28;20196;-77
2021/12/07 13:37:11;;;;;;;36.43;20.97;;;1.20;99.90;;;;;;5038438;28;20202;-77
2021/12/07 13:39:44;;;;;;;35.97;22.97;;;1.20;99.90;;;;;;5035155;28;20210;-78
2021/12/07 13:42:18;;;;;;;36.20;21.53;;;1.20;99.90;;;;;;5026689;28;20673;-79
2021/12/07 13:44:46;;;;;;;36.63;22.30;;;1.10;99.90;;;;;;5044326;28;20972;-78
2021/12/07 13:47:15;;;;;;;35.93;22.43;;;1.10;99.90;;;;;;5065237;28;20815;-77
2021/12/07 13:49:44;;;;;;;33.87;21.53;;;1.10;99.90;;;;;;5053875;28;20234;-78
2021/12/07 13:52:19;;;;;;;36.80;23.37;;;1.10;99.90;;;;;;5043534;28;20250;-79
2021/12/07 13:54:48;;;;;;;35.23;21.37;;;1.00;99.90;;;;;;5031920;28;20590;-79
2021/12/07 13:57:30;;;;;;;32.90;21.33;;;1.00;99.90;;;;;;5050304;28;20625;-78
2021/12/07 14:00:09;;;;;;;34.13;21.60;;;1.00;99.90;;;;;;5035046;28;20297;-77
2021/12/07 14:02:35;;;;;;;35.20;21.87;;;1.00;99.90;;;;;;5036312;28;20238;-76
2021/12/07 14:05:19;;;;;;;33.93;23.60;;;1.10;99.90;;;;;;5037554;28;20205;-75
2021/12/07 14:07:47;;;;;;;33.33;21.40;;;1.10;99.90;;;;;;5033058;28;20810;-74
2021/12/07 14:10:22;;;;;;;35.97;22.40;;;1.00;99.90;;;;;;5034644;28;20671;-76
2021/12/07 14:12:49;;;;;;;39.67;23.73;;;1.00;99.90;;;;;;5034297;28;20180;-77